Time;durP1;ratioP1;P1;durP2;ratioP2;P2;SDS_P1;SDS_P2;PMS_P1;PMS_P2;Temp;Humidity;BMP_temperature;BMP_pressure;BME280_temperature;BME280_humidity;BME280_pressure;Samples;Min_cycle;Max_cycle;Signal;HPM_P1;HPM_P2
2022/10/27 00:01:00;;;;;;;19.25;9.23;;;;;;;9.42;83.45;100142.63;1684351;84;21054;-80
2022/10/27 00:03:29;;;;;;;20.12;9.75;;;;;;;9.45;83.12;100141.30;1675877;84;21095;-80
2022/10/27 00:06:04;;;;;;;18.85;9.15;;;;;;;9.44;82.97;100141.75;1667150;84;21023;-79
2022/10/27 00:08:32;;;;;;;20.10;9.05;;;;;;;9.42;82.45;100150.42;1676689;85;21634;-85
2022/10/27 00:11:06;;;;;;;18.95;8.80;;;;;;;9.31;82.16;100143.95;1666751;85;21038;-81
2022/10/27 00:13:35;;;;;;;20.17;9.10;;;;;;;9.19;81.69;100143.98;1680416;85;21083;-80
2022/10/27 00:16:08;;;;;;;24.72;8.80;;;;;;;9.13;82.78;100151.34;1687152;84;20983;-80
2022/10/27 00:18:36;;;;;;;17.93;9.40;;;;;;;9.12;83.84;100149.64;1670269;85;21046;-80
2022/10/27 00:21:08;;;;;;;22.87;9.18;;;;;;;9.14;83.43;100145.31;1678822;85;21038;-80
2022/10/27 00:23:37;;;;;;;21.37;9.20;;;;;;;9.07;83.19;100154.84;1669967;84;21159;-79
2022/10/27 00:26:11;;;;;;;17.42;8.58;;;;;;;9.02;83.27;100155.27;1679420;85;21077;-81
2022/10/27 00:28:39;;;;;;;17.75;8.85;;;;;;;9.01;82.89;100155.27;1677501;85;21039;-80
2022/10/27 00:31:14;;;;;;;20.48;9.83;;;;;;;9.01;83.69;100150.08;1699134;83;21015;-82
2022/10/27 00:33:44;;;;;;;21.48;8.98;;;;;;;9.06;83.83;100155.70;1664530;85;21047;-81
2022/10/27 00:36:16;;;;;;;19.95;9.20;;;;;;;9.07;83.15;100157.85;1660328;86;21063;-80
2022/10/27 00:38:44;;;;;;;20.25;9.48;;;;;;;9.08;83.89;100162.19;1678105;84;21080;-80
2022/10/27 00:41:34;;;;;;;21.05;8.85;;;;;;;9.10;84.00;100166.50;1664272;85;21522;-80
2022/10/27 00:44:38;;;;;;;22.00;9.48;;;;;;;9.16;84.08;100173.41;1681755;85;21742;-80
2022/10/27 00:47:26;;;;;;;21.62;8.63;;;;;;;9.20;83.79;100166.05;1638988;86;21081;-82
2022/10/27 00:50:04;;;;;;;23.12;9.53;;;;;;;9.20;84.36;100159.56;1640944;86;21090;-81
2022/10/27 00:52:49;;;;;;;22.95;9.93;;;;;;;9.27;84.46;100167.77;1694467;83;21030;-81
2022/10/27 00:55:33;;;;;;;19.25;8.58;;;;;;;9.30;83.73;100171.64;1691157;82;22215;-80
2022/10/27 00:58:03;;;;;;;;;;;;;;;9.24;84.55;100163.88;1704749;84;21079;-80
2022/10/27 01:00:31;;;;;;;17.70;8.75;;;;;;;9.19;84.09;100167.34;1698449;83;20140;-80
2022/10/27 01:02:59;;;;;;;12.68;7.50;;;;;;;9.15;83.59;100158.69;1711173;84;21023;-81
2022/10/27 01:05:28;;;;;;;15.68;8.05;;;;;;;9.15;84.62;100156.10;1702278;82;21022;-80
2022/10/27 01:08:00;;;;;;;16.73;7.00;;;;;;;9.17;84.29;100164.74;1705012;83;21162;-82
2022/10/27 01:10:28;;;;;;;15.83;7.78;;;;;;;9.12;84.28;100158.72;1698769;84;21011;-81
2022/10/27 01:12:56;;;;;;;14.68;8.05;;;;;;;9.09;84.66;100162.19;1711323;84;20996;-80
2022/10/27 01:16:03;;;;;;;16.15;7.95;;;;;;;9.08;84.54;100164.34;1710875;84;21332;-80
2022/10/27 01:19:04;;;;;;;14.38;7.75;;;;;;;9.02;84.68;100151.83;1708644;84;21032;-80
2022/10/27 01:22:13;;;;;;;12.95;6.97;;;;;;;9.05;85.77;100150.50;1670903;85;21040;-82
2022/10/27 01:24:50;;;;;;;12.98;6.80;;;;;;;9.11;84.23;100149.19;1711706;82;21100;-80
2022/10/27 01:27:56;;;;;;;14.43;7.40;;;;;;;9.08;84.27;100151.81;1708394;84;21107;-80
2022/10/27 01:30:24;;;;;;;16.32;6.70;;;;;;;9.10;84.52;100150.08;1690650;84;21055;-80
2022/10/27 01:33:12;;;;;;;16.60;7.62;;;;;;;9.11;84.10;100150.48;1681325;85;21052;-80
2022/10/27 01:35:53;;;;;;;14.65;7.37;;;;;;;9.08;84.29;100144.03;1685587;84;21047;-80
2022/10/27 01:38:50;;;;;;;15.88;7.78;;;;;;;9.11;84.46;100154.38;1677307;85;21071;-82
2022/10/27 01:41:25;;;;;;;15.23;7.03;;;;;;;9.16;84.68;100157.40;1693080;84;21079;-81
2022/10/27 01:43:59;;;;;;;15.88;8.18;;;;;;;9.20;85.31;100150.48;1690903;84;21037;-81
2022/10/27 01:46:26;;;;;;;15.48;7.95;;;;;;;9.30;85.43;100149.58;1710035;83;21043;-80
2022/10/27 01:48:55;;;;;;;13.00;7.42;;;;;;;9.34;84.45;100143.52;1692316;84;20976;-81
2022/10/27 01:51:23;;;;;;;17.02;7.92;;;;;;;9.40;84.99;100147.82;1693046;84;21063;-80
2022/10/27 01:53:52;;;;;;;17.65;8.33;;;;;;;9.49;85.33;100148.21;1682583;82;21070;-80
2022/10/27 01:57:17;;;;;;;15.05;7.58;;;;;;;9.55;85.06;100157.30;1700085;84;21075;-80
2022/10/27 01:59:56;;;;;;;11.97;6.58;;;;;;;9.61;85.12;100150.78;1682645;84;21045;-80
2022/10/27 02:02:41;;;;;;;13.75;7.37;;;;;;;9.66;84.64;100156.80;1690113;82;21094;-79
2022/10/27 02:05:44;;;;;;;14.78;7.35;;;;;;;9.68;84.25;100156.80;1682664;85;21063;-81
2022/10/27 02:08:29;;;;;;;12.37;6.55;;;;;;;9.71;84.04;100156.36;1652630;84;21078;-81
2022/10/27 02:11:08;;;;;;;15.53;6.85;;;;;;;9.75;83.61;100165.00;1704980;84;21091;-81
2022/10/27 02:13:39;;;;;;;16.20;7.00;;;;;;;9.73;83.66;100175.39;1705641;82;21095;-80
2022/10/27 02:16:15;;;;;;;17.27;7.33;;;;;;;9.75;83.66;100169.75;1690212;83;21004;-81
2022/10/27 02:18:48;;;;;;;16.93;7.33;;;;;;;9.78;83.56;100181.00;1681351;85;21079;-80
2022/10/27 02:21:17;;;;;;;17.17;6.70;;;;;;;9.78;83.25;100183.59;1707623;82;21063;-81
2022/10/27 02:23:45;;;;;;;16.62;7.53;;;;;;;9.74;83.06;100177.10;1700210;84;21106;-80
2022/10/27 02:27:03;;;;;;;19.55;7.42;;;;;;;9.80;83.21;100181.86;1656350;85;21023;-79
2022/10/27 02:29:41;;;;;;;12.73;6.83;;;;;;;9.80;82.95;100182.70;1704789;82;21043;-80
2022/10/27 02:32:15;;;;;;;15.38;7.30;;;;;;;9.75;82.91;100191.83;1711469;84;21039;-82
2022/10/27 02:34:44;;;;;;;13.53;7.45;;;;;;;9.79;83.39;100183.59;1696936;84;21004;-82
2022/10/27 02:37:20;;;;;;;16.90;7.35;;;;;;;9.87;83.24;100183.56;1701912;84;20976;-81
2022/10/27 02:39:47;;;;;;;17.73;7.72;;;;;;;9.89;83.09;100181.82;1692157;84;21079;-82
2022/10/27 02:42:15;;;;;;;14.60;7.15;;;;;;;9.93;82.77;100184.39;1666078;85;20994;-82
2022/10/27 02:44:43;;;;;;;18.65;7.90;;;;;;;9.96;83.10;100184.36;1709018;84;21075;-82
2022/10/27 02:47:10;;;;;;;14.07;7.33;;;;;;;10.01;83.10;100186.95;1692811;82;21011;-82
2022/10/27 02:49:38;;;;;;;17.90;7.92;;;;;;;10.06;83.18;100192.97;1711449;84;21043;-80
2022/10/27 02:52:05;;;;;;;16.87;7.75;;;;;;;10.06;82.74;100193.41;1706299;82;21043;-81
2022/10/27 02:54:33;;;;;;;20.75;8.30;;;;;;;10.02;82.33;100195.59;1690771;84;21055;-81
2022/10/27 02:57:00;;;;;;;17.73;8.08;;;;;;;9.96;82.49;100192.59;1705332;84;21571;-81
2022/10/27 02:59:28;;;;;;;21.10;9.03;;;;;;;9.98;82.76;100191.30;1714945;83;21123;-80
2022/10/27 03:01:56;;;;;;;17.77;8.33;;;;;;;10.01;82.83;100189.95;1708217;83;21042;-81
2022/10/27 03:04:24;;;;;;;19.45;9.30;;;;;;;10.03;82.80;100192.14;1716654;82;21086;-80
2022/10/27 03:06:51;;;;;;;20.92;10.63;;;;;;;10.07;82.97;100196.45;1690280;85;21039;-80
2022/10/27 03:09:19;;;;;;;18.95;8.90;;;;;;;10.04;82.53;100199.91;1691724;83;21527;-80
2022/10/27 03:11:47;;;;;;;20.50;8.80;;;;;;;10.02;83.14;100200.35;1724329;82;21039;-82
2022/10/27 03:14:15;;;;;;;16.35;9.53;;;;;;;10.05;83.35;100205.98;1705247;82;21129;-80
2022/10/27 03:16:42;;;;;;;19.73;8.75;;;;;;;10.09;83.44;100195.56;1708261;83;21031;-80
2022/10/27 03:19:10;;;;;;;17.92;8.18;;;;;;;10.10;83.05;100199.87;1684036;85;21671;-80
2022/10/27 03:21:38;;;;;;;17.37;8.83;;;;;;;10.11;83.33;100204.21;1712939;82;20987;-81
2022/10/27 03:24:06;;;;;;;18.50;8.48;;;;;;;10.12;83.45;100192.92;1700498;83;21154;-80
2022/10/27 03:26:34;;;;;;;14.28;7.80;;;;;;;10.17;83.60;100189.03;1690632;83;21027;-84
2022/10/27 03:29:03;;;;;;;17.07;9.23;;;;;;;10.23;83.38;100196.78;1726358;82;21609;-80
2022/10/27 03:31:30;;;;;;;18.55;8.55;;;;;;;10.20;82.86;100198.09;1742218;82;21078;-83
2022/10/27 03:33:58;;;;;;;18.52;8.80;;;;;;;10.22;83.47;100194.19;1704276;83;21392;-81
2022/10/27 03:36:26;;;;;;;15.68;8.93;;;;;;;10.29;83.17;100198.48;1696536;83;22171;-82
2022/10/27 03:38:54;;;;;;;20.30;9.90;;;;;;;10.28;82.78;100195.44;1708556;83;20995;-80
2022/10/27 03:41:21;;;;;;;15.83;8.95;;;;;;;10.28;83.59;100193.70;1736511;82;21055;-81
2022/10/27 03:43:49;;;;;;;24.00;9.53;;;;;;;10.31;83.55;100192.87;1708701;82;21051;-82
2022/10/27 03:46:17;;;;;;;17.87;9.13;;;;;;;10.33;83.74;100194.58;1694710;85;21082;-80
2022/10/27 03:48:44;;;;;;;21.37;9.65;;;;;;;10.39;83.80;100189.78;1709083;83;20991;-80
2022/10/27 03:51:12;;;;;;;27.40;10.58;;;;;;;10.42;83.83;100191.48;1697525;82;21471;-80
2022/10/27 03:53:39;;;;;;;32.88;12.47;;;;;;;10.44;83.26;100190.59;1709285;83;21662;-80
2022/10/27 03:56:08;;;;;;;36.83;12.55;;;;;;;10.45;84.02;100194.08;1701290;82;21051;-79
2022/10/27 03:58:36;;;;;;;30.85;13.95;;;;;;;10.48;83.74;100198.80;1701860;83;21051;-81
2022/10/27 04:01:05;;;;;;;31.30;13.68;;;;;;;10.43;83.71;100207.08;1672678;84;21024;-85
2022/10/27 04:03:32;;;;;;;36.23;12.68;;;;;;;10.39;83.35;100218.38;1704859;84;21097;-83
2022/10/27 04:06:00;;;;;;;30.50;13.38;;;;;;;10.38;83.66;100211.88;1708221;84;21020;-82
2022/10/27 04:08:28;;;;;;;33.33;13.32;;;;;;;10.37;83.27;100212.33;1694452;84;21227;-80
2022/10/27 04:10:56;;;;;;;31.95;13.70;;;;;;;10.34;83.84;100219.72;1703762;83;21027;-80
2022/10/27 04:13:23;;;;;;;28.38;10.82;;;;;;;10.40;84.22;100215.33;1659216;85;21063;-80
2022/10/27 04:15:51;;;;;;;29.57;13.40;;;;;;;10.35;84.14;100214.92;1703335;84;21067;-81
2022/10/27 04:18:18;;;;;;;23.40;11.68;;;;;;;10.35;83.94;100218.83;1703183;84;21052;-81
2022/10/27 04:20:46;;;;;;;25.00;10.15;;;;;;;10.39;84.42;100227.92;1657488;85;21099;-81
2022/10/27 04:23:14;;;;;;;18.27;9.15;;;;;;;10.41;84.37;100228.77;1682492;84;21114;-82
2022/10/27 04:25:43;;;;;;;60.43;25.25;;;;;;;10.41;84.11;100232.23;1699744;84;21515;-81
2022/10/27 04:28:11;;;;;;;24.32;9.60;;;;;;;10.42;84.19;100249.53;1710561;83;21095;-80
2022/10/27 04:30:38;;;;;;;24.27;10.48;;;;;;;10.40;84.26;100246.08;1683723;85;21491;-81
2022/10/27 04:33:06;;;;;;;49.23;19.27;;;;;;;10.31;83.17;100250.05;1666416;84;21039;-80
2022/10/27 04:35:34;;;;;;;17.23;10.32;;;;;;;10.24;84.08;100247.02;1704333;84;21051;-81
2022/10/27 04:38:01;;;;;;;18.52;9.58;;;;;;;10.25;84.37;100261.75;1687005;84;21019;-82
2022/10/27 04:40:29;;;;;;;30.82;14.30;;;;;;;10.26;84.30;100264.32;1692236;84;21019;-81
2022/10/27 04:42:57;;;;;;;23.52;11.08;;;;;;;10.29;84.20;100256.52;1705708;84;21046;-81
2022/10/27 04:45:25;;;;;;;20.82;9.48;;;;;;;10.25;84.42;100256.55;1684462;85;21019;-82
2022/10/27 04:47:52;;;;;;;16.75;9.15;;;;;;;10.28;84.26;100251.33;1705906;82;21032;-81
2022/10/27 04:50:21;;;;;;;20.05;8.80;;;;;;;10.29;84.48;100247.87;1706458;83;21184;-81
2022/10/27 04:53:01;;;;;;;21.80;11.10;;;;;;;10.25;83.90;100245.72;1683946;84;21050;-81
2022/10/27 04:55:32;;;;;;;30.32;10.38;;;;;;;10.23;84.41;100249.20;1703574;84;21036;-82
2022/10/27 04:58:00;;;;;;;19.77;9.10;;;;;;;10.20;84.05;100259.16;1679528;85;21520;-80
2022/10/27 05:00:27;;;;;;;19.35;9.95;;;;;;;10.20;84.30;100246.61;1712458;84;21039;-81
2022/10/27 05:02:58;;;;;;;21.35;10.40;;;;;;;10.22;84.24;100243.56;1688427;84;21126;-81
2022/10/27 05:05:28;;;;;;;26.77;10.30;;;;;;;10.21;83.66;100253.11;1700688;84;21039;-81
2022/10/27 05:08:02;;;;;;;23.07;11.43;;;;;;;10.15;83.72;100255.73;1679045;84;21322;-81
2022/10/27 05:10:31;;;;;;;;;;;;;;;10.07;83.55;100255.77;1696964;83;21594;-81
2022/10/27 05:12:59;;;;;;;25.08;10.20;;;;;;;10.08;84.26;100262.67;1688572;82;20152;-81
2022/10/27 05:15:27;;;;;;;22.25;10.38;;;;;;;10.04;83.92;100266.60;1703914;84;21023;-82
2022/10/27 05:17:55;;;;;;;32.25;12.13;;;;;;;9.93;83.77;100258.86;1699474;84;22297;-81
2022/10/27 05:20:23;;;;;;;21.82;10.68;;;;;;;9.95;84.39;100266.22;1683401;84;21071;-82
2022/10/27 05:22:51;;;;;;;25.08;10.15;;;;;;;9.98;84.64;100267.93;1700033;84;21483;-80
2022/10/27 05:25:18;;;;;;;22.05;11.35;;;;;;;10.02;84.91;100278.30;1701961;82;21023;-80
2022/10/27 05:27:46;;;;;;;21.40;11.22;;;;;;;10.02;85.12;100268.34;1666768;85;21055;-81
2022/10/27 05:30:14;;;;;;;26.85;12.28;;;;;;;10.08;85.54;100269.61;1691619;82;21031;-81
2022/10/27 05:32:42;;;;;;;31.95;12.30;;;;;;;10.14;85.50;100276.94;1685906;85;21004;-81
2022/10/27 05:35:10;;;;;;;18.80;10.35;;;;;;;10.21;85.46;100284.73;1690584;84;21047;-81
2022/10/27 05:37:44;;;;;;;24.55;10.40;;;;;;;10.28;85.40;100286.41;1696844;84;21090;-81
2022/10/27 05:40:11;;;;;;;;;;;;;;;10.31;84.82;100291.64;1703516;82;21042;-81
2022/10/27 05:42:39;;;;;;;21.85;9.95;;;;;;;10.34;85.07;100292.50;1712242;83;20192;-82
2022/10/27 05:45:09;;;;;;;23.20;10.88;;;;;;;10.41;85.30;100288.56;1683147;85;21027;-80
2022/10/27 05:47:36;;;;;;;42.03;19.02;;;;;;;10.49;85.12;100291.53;1697489;84;21043;-80
2022/10/27 05:50:05;;;;;;;49.45;23.62;;;;;;;10.55;84.85;100296.70;1709771;84;21500;-81
2022/10/27 05:52:33;;;;;;;33.70;17.25;;;;;;;10.61;84.82;100302.30;1713373;82;21003;-81
2022/10/27 05:55:00;;;;;;;27.07;13.88;;;;;;;10.68;84.53;100307.91;1701179;82;21143;-81
2022/10/27 05:57:28;;;;;;;27.87;13.28;;;;;;;10.75;84.32;100310.02;1710346;83;21019;-81
2022/10/27 05:59:55;;;;;;;31.07;14.90;;;;;;;10.79;84.11;100302.63;1716963;82;21039;-81
2022/10/27 06:02:23;;;;;;;24.23;12.23;;;;;;;10.83;84.04;100319.94;1704653;82;21034;-80
2022/10/27 06:04:52;;;;;;;25.65;10.98;;;;;;;10.86;83.88;100320.34;1681664;85;21035;-81
2022/10/27 06:07:20;;;;;;;33.67;15.08;;;;;;;10.89;83.80;100320.34;1714554;82;21051;-82
2022/10/27 06:09:48;;;;;;;31.23;15.35;;;;;;;10.91;83.60;100319.89;1710907;82;21601;-80
2022/10/27 06:12:15;;;;;;;26.87;12.60;;;;;;;10.97;83.66;100323.75;1710325;82;20995;-80
2022/10/27 06:14:43;;;;;;;31.15;13.88;;;;;;;11.02;83.76;100328.50;1683791;83;21038;-82
2022/10/27 06:17:11;;;;;;;28.65;11.85;;;;;;;11.04;83.39;100328.46;1682608;85;21066;-80
2022/10/27 06:19:38;;;;;;;33.73;12.75;;;;;;;11.05;83.10;100331.06;1689313;85;21085;-80
2022/10/27 06:22:06;;;;;;;20.40;10.93;;;;;;;11.06;83.12;100334.52;1718881;82;21043;-81
2022/10/27 06:24:34;;;;;;;21.33;10.80;;;;;;;11.10;83.13;100329.30;1720014;82;21098;-81
2022/10/27 06:27:01;;;;;;;25.02;10.68;;;;;;;11.14;83.10;100330.11;1716997;82;21019;-82
2022/10/27 06:29:29;;;;;;;25.70;9.98;;;;;;;11.18;83.00;100329.66;1726035;82;21569;-82
2022/10/27 06:31:56;;;;;;;23.22;10.70;;;;;;;11.22;82.94;100329.65;1708880;82;21050;-82
2022/10/27 06:34:24;;;;;;;27.82;11.75;;;;;;;11.20;82.86;100335.72;1723599;82;21074;-83
2022/10/27 06:36:52;;;;;;;28.42;11.05;;;;;;;11.16;82.80;100328.40;1722592;82;21090;-80
2022/10/27 06:39:19;;;;;;;28.07;12.15;;;;;;;11.22;82.82;100341.36;1681062;85;21666;-82
2022/10/27 06:41:47;;;;;;;29.95;11.85;;;;;;;11.24;82.72;100346.12;1716699;82;21529;-81
2022/10/27 06:44:16;;;;;;;25.15;12.05;;;;;;;11.23;82.50;100348.72;1717691;83;21068;-80
2022/10/27 06:46:44;;;;;;;31.35;12.90;;;;;;;11.23;82.67;100346.97;1714022;82;21003;-81
2022/10/27 06:49:11;;;;;;;23.90;12.63;;;;;;;11.29;82.62;100344.77;1729941;82;21026;-81
2022/10/27 06:51:39;;;;;;;66.60;31.30;;;;;;;11.29;82.40;100339.56;1688548;85;21048;-80
2022/10/27 06:54:07;;;;;;;30.25;16.95;;;;;;;11.24;82.12;100343.92;1716260;82;21019;-82
2022/10/27 06:56:35;;;;;;;31.62;15.75;;;;;;;11.21;82.31;100350.03;1680594;85;21039;-80
2022/10/27 06:59:03;;;;;;;28.98;11.75;;;;;;;11.22;82.64;100347.88;1716983;82;21054;-81
2022/10/27 07:01:30;;;;;;;33.28;11.48;;;;;;;11.27;82.58;100344.77;1717733;83;22793;-81
2022/10/27 07:03:58;;;;;;;25.25;10.98;;;;;;;11.28;82.43;100345.21;1687558;84;21094;-81
2022/10/27 07:06:26;;;;;;;30.12;13.58;;;;;;;11.28;82.37;100345.21;1709239;83;21014;-79
2022/10/27 07:08:54;;;;;;;51.20;22.27;;;;;;;11.29;82.40;100345.63;1716621;82;21043;-80
2022/10/27 07:11:25;;;;;;;52.65;22.35;;;;;;;11.35;82.55;100345.57;1720059;82;21027;-81
2022/10/27 07:13:51;;;;;;;24.35;13.08;;;;;;;11.40;82.49;100349.88;1716026;82;21531;-81
2022/10/27 07:16:19;;;;;;;25.15;11.63;;;;;;;11.43;82.17;100348.11;1723411;82;22344;-82
2022/10/27 07:18:47;;;;;;;34.78;13.98;;;;;;;11.42;82.22;100348.13;1716789;83;21069;-81
2022/10/27 07:21:16;;;;;;;25.77;12.35;;;;;;;11.42;82.05;100341.19;1718164;83;21051;-82
2022/10/27 07:23:43;;;;;;;27.90;12.10;;;;;;;11.44;82.30;100343.77;1705088;83;21091;-81
2022/10/27 07:26:11;;;;;;;27.20;13.45;;;;;;;11.51;82.43;100351.95;1688304;84;21027;-82
2022/10/27 07:28:39;;;;;;;19.60;10.28;;;;;;;11.54;82.21;100350.64;1711796;83;21000;-81
2022/10/27 07:31:07;;;;;;;24.37;11.00;;;;;;;11.60;82.19;100349.70;1722577;82;21296;-81
2022/10/27 07:33:35;;;;;;;26.23;11.65;;;;;;;11.64;81.90;100347.48;1717767;82;21087;-80
2022/10/27 07:36:03;;;;;;;26.62;14.07;;;;;;;11.69;82.04;100347.88;1692571;85;21054;-81
2022/10/27 07:38:31;;;;;;;34.67;14.47;;;;;;;11.74;81.70;100352.61;1676106;85;21071;-79
2022/10/27 07:40:58;;;;;;;24.90;12.10;;;;;;;11.77;81.66;100343.03;1729370;82;21043;-80
2022/10/27 07:43:26;;;;;;;21.60;11.08;;;;;;;11.81;81.70;100342.13;1717484;82;21015;-81
2022/10/27 07:45:54;;;;;;;32.73;10.50;;;;;;;11.86;81.62;100349.02;1715626;82;21102;-80
2022/10/27 07:48:21;;;;;;;23.85;10.10;;;;;;;11.93;81.61;100352.00;1678203;84;20980;-79
2022/10/27 07:50:50;;;;;;;21.00;10.15;;;;;;;12.00;81.44;100346.30;1720314;82;21047;-81
2022/10/27 07:53:18;;;;;;;22.65;10.30;;;;;;;12.08;81.27;100346.22;1690220;85;21063;-80
2022/10/27 07:55:46;;;;;;;26.60;13.35;;;;;;;12.11;81.02;100345.72;1712270;83;21891;-80
2022/10/27 07:58:16;;;;;;;28.17;12.20;;;;;;;12.14;81.02;100343.09;1723146;82;21023;-79
2022/10/27 08:00:46;;;;;;;44.10;21.42;;;;;;;12.22;81.14;100344.31;1707443;82;21047;-80
2022/10/27 08:03:18;;;;;;;22.20;10.30;;;;;;;12.30;81.18;100345.08;1709411;82;21529;-80
2022/10/27 08:05:46;;;;;;;19.20;9.90;;;;;;;12.38;80.64;100350.66;1721236;82;21050;-80
2022/10/27 08:08:14;;;;;;;19.20;9.63;;;;;;;12.41;80.06;100344.93;1729804;82;21023;-79
2022/10/27 08:10:44;;;;;;;20.97;9.73;;;;;;;12.46;80.42;100347.50;1720458;82;21114;-79
2022/10/27 08:13:12;;;;;;;22.50;10.75;;;;;;;12.54;80.39;100337.83;1712613;82;21106;-80
2022/10/27 08:15:40;;;;;;;23.02;9.88;;;;;;;12.64;80.24;100339.88;1683436;84;21055;-80
2022/10/27 08:18:09;;;;;;;20.82;9.53;;;;;;;12.72;80.21;100340.62;1729834;82;21003;-81
2022/10/27 08:20:44;;;;;;;17.65;9.18;;;;;;;12.77;79.86;100336.19;1685983;85;21083;-80
2022/10/27 08:23:15;;;;;;;18.00;8.28;;;;;;;12.85;79.29;100336.08;1724543;82;21036;-82
2022/10/27 08:25:44;;;;;;;18.98;8.63;;;;;;;12.90;79.10;100326.00;1722052;82;21056;-82
2022/10/27 08:28:13;;;;;;;18.20;8.83;;;;;;;12.92;79.02;100331.20;1720282;82;21070;-82
2022/10/27 08:30:41;;;;;;;22.07;9.13;;;;;;;12.97;78.56;100325.48;1689502;85;21019;-82
2022/10/27 08:33:10;;;;;;;15.88;8.78;;;;;;;13.07;78.35;100334.89;1718760;82;21011;-80
2022/10/27 08:35:37;;;;;;;21.40;9.45;;;;;;;13.13;78.42;100327.41;1719000;82;20983;-81
2022/10/27 08:38:10;;;;;;;19.98;9.55;;;;;;;13.19;78.04;100325.13;1686531;85;21110;-81
2022/10/27 08:41:13;;;;;;;27.80;10.00;;;;;;;13.26;77.99;100327.61;1707723;82;21015;-81
2022/10/27 08:44:06;;;;;;;27.07;10.28;;;;;;;13.35;78.15;100330.57;1661315;86;21079;-81
2022/10/27 08:46:50;;;;;;;17.32;9.45;;;;;;;13.46;77.98;100320.78;1707912;83;21031;-81
2022/10/27 08:49:35;;;;;;;18.62;9.35;;;;;;;13.56;77.39;100330.62;1689637;85;21114;-81
2022/10/27 08:52:27;;;;;;;14.25;7.80;;;;;;;13.64;77.64;100326.58;1727873;82;21590;-80
2022/10/27 08:55:06;;;;;;;16.82;7.22;;;;;;;13.72;77.22;100324.23;1717694;82;21007;-81
2022/10/27 08:57:34;;;;;;;13.75;6.67;;;;;;;13.85;77.08;100328.80;1727650;82;21015;-85
2022/10/27 09:00:02;;;;;;;17.95;7.80;;;;;;;13.98;76.82;100329.41;1685079;85;21067;-85
2022/10/27 09:02:56;;;;;;;20.35;7.55;;;;;;;14.05;76.17;100331.48;1724128;82;21118;-86
2022/10/27 09:05:44;;;;;;;21.97;9.13;;;;;;;14.07;75.52;100330.55;1712691;83;21015;-82
2022/10/27 09:08:33;;;;;;;28.02;13.28;;;;;;;14.17;74.91;100325.15;1732143;82;21027;-82
2022/10/27 09:11:12;;;;;;;18.85;8.30;;;;;;;14.22;75.64;100328.06;1712058;82;21087;-81
2022/10/27 09:13:54;;;;;;;23.15;8.13;;;;;;;14.29;75.09;100317.90;1722666;82;21110;-82
2022/10/27 09:16:48;;;;;;;21.05;8.48;;;;;;;14.42;74.58;100317.63;1711057;83;21119;-81
2022/10/27 09:19:19;;;;;;;;;;;;;;;14.51;73.85;100309.14;1735862;82;21026;-81
2022/10/27 09:21:50;;;;;;;19.98;7.72;;;;;;;14.61;74.32;100310.30;1720487;82;20140;-80
2022/10/27 09:24:22;;;;;;;18.32;8.28;;;;;;;14.67;74.59;100310.15;1725811;82;21350;-81
2022/10/27 09:26:51;;;;;;;15.53;7.92;;;;;;;14.77;74.45;100305.11;1710282;82;21039;-82
2022/10/27 09:29:24;;;;;;;22.52;8.93;;;;;;;14.84;74.47;100300.16;1721748;82;21103;-82
2022/10/27 09:31:59;;;;;;;16.60;7.42;;;;;;;14.97;74.30;100292.86;1719473;82;21063;-80
2022/10/27 09:34:47;;;;;;;17.92;6.90;;;;;;;15.10;73.13;100298.22;1715283;83;21020;-82
2022/10/27 09:37:18;;;;;;;20.15;5.87;;;;;;;15.24;73.60;100304.44;1693664;84;21055;-81
2022/10/27 09:39:50;;;;;;;13.13;6.25;;;;;;;15.41;73.62;100293.97;1723205;82;21098;-83
2022/10/27 09:42:19;;;;;;;11.18;6.12;;;;;;;15.53;73.78;100301.50;1686510;85;21967;-80
2022/10/27 09:44:54;;;;;;;13.80;6.22;;;;;;;15.64;73.74;100302.55;1720447;82;21038;-80
2022/10/27 09:47:24;;;;;;;14.65;5.10;;;;;;;15.76;73.30;100302.25;1715785;82;21007;-81
2022/10/27 09:49:57;;;;;;;17.73;5.67;;;;;;;15.90;70.29;100301.87;1708313;82;21051;-80
2022/10/27 09:52:36;;;;;;;13.93;5.00;;;;;;;15.98;71.95;100292.48;1713864;82;21137;-81
2022/10/27 09:55:05;;;;;;;14.00;6.50;;;;;;;16.07;72.01;100296.12;1722426;82;21011;-81
2022/10/27 09:57:37;;;;;;;20.50;8.80;;;;;;;16.14;70.60;100296.38;1713446;82;21066;-81
2022/10/27 10:00:16;;;;;;;12.33;5.47;;;;;;;16.22;70.51;100296.16;1727228;82;21098;-86
2022/10/27 10:03:01;;;;;;;9.98;4.83;;;;;;;16.34;70.04;100291.86;1709601;83;21059;-79
2022/10/27 10:05:33;;;;;;;14.30;6.37;;;;;;;16.46;70.47;100293.25;1722313;82;21675;-80
2022/10/27 10:08:24;;;;;;;15.75;5.03;;;;;;;16.57;67.24;100292.91;1709340;82;21046;-79
2022/10/27 10:10:59;;;;;;;9.50;4.28;;;;;;;16.68;68.78;100293.45;1719454;82;20967;-79
2022/10/27 10:13:30;;;;;;;6.20;3.40;;;;;;;16.79;69.22;100287.42;1714212;82;21702;-81
2022/10/27 10:16:17;;;;;;;15.32;4.95;;;;;;;16.94;68.49;100288.72;1732502;82;21433;-80
2022/10/27 10:19:04;;;;;;;15.78;6.80;;;;;;;17.04;68.37;100286.19;1712638;82;21011;-83
2022/10/27 10:21:49;;;;;;;11.08;4.22;;;;;;;17.18;68.32;100276.53;1714607;82;21000;-81
2022/10/27 10:24:33;;;;;;;5.53;2.75;;;;;;;17.27;67.72;100270.98;1726165;82;21566;-81
2022/10/27 10:27:03;;;;;;;9.18;3.42;;;;;;;17.43;66.96;100283.14;1723903;82;21000;-79
2022/10/27 10:29:47;;;;;;;11.70;4.05;;;;;;;17.59;66.43;100283.94;1720585;82;21055;-78
2022/10/27 10:32:25;;;;;;;8.68;4.30;;;;;;;17.69;64.71;100278.75;1718798;82;21026;-80
2022/10/27 10:34:54;;;;;;;7.30;3.62;;;;;;;17.84;66.32;100278.20;1709381;82;21098;-80
2022/10/27 10:37:36;;;;;;;7.62;3.52;;;;;;;18.00;65.67;100268.45;1683305;85;20995;-78
2022/10/27 10:40:16;;;;;;;9.53;3.77;;;;;;;18.13;64.65;100267.08;1708685;82;20996;-80
2022/10/27 10:43:04;;;;;;;13.80;4.50;;;;;;;18.32;64.21;100272.48;1719806;82;21070;-80
2022/10/27 10:45:35;;;;;;;9.70;4.08;;;;;;;18.47;64.94;100266.64;1717707;82;21117;-80
2022/10/27 10:48:20;;;;;;;14.30;3.85;;;;;;;18.67;61.96;100261.05;1684586;85;21047;-80
2022/10/27 10:50:51;;;;;;;6.17;3.52;;;;;;;18.80;62.85;100253.09;1710132;82;21634;-79
2022/10/27 10:53:29;;;;;;;6.62;3.58;;;;;;;19.00;63.34;100249.64;1692874;85;21035;-79
2022/10/27 10:56:02;;;;;;;8.85;3.50;;;;;;;19.17;63.40;100253.34;1714369;82;21054;-78
2022/10/27 10:58:34;;;;;;;8.68;3.60;;;;;;;19.32;61.90;100251.38;1734090;82;21035;-80
2022/10/27 11:01:06;;;;;;;8.58;3.58;;;;;;;19.40;61.24;100250.58;1721120;82;21059;-79
2022/10/27 11:03:39;;;;;;;9.45;3.33;;;;;;;19.53;61.23;100252.20;1703198;82;21138;-80
2022/10/27 11:06:10;;;;;;;;;;;;;;;19.67;59.70;100243.69;1717498;82;21027;-80
2022/10/27 11:08:42;;;;;;;10.23;2.95;;;;;;;19.82;60.93;100246.16;1711162;82;20210;-79
2022/10/27 11:11:20;;;;;;;4.42;2.55;;;;;;;19.86;59.54;100243.30;1702719;82;21037;-79
2022/10/27 11:13:52;;;;;;;8.78;3.12;;;;;;;19.95;58.76;100243.33;1680324;85;21174;-79
2022/10/27 11:16:21;;;;;;;10.78;3.00;;;;;;;20.03;59.71;100244.30;1697788;82;21555;-80
2022/10/27 11:18:59;;;;;;;12.50;3.08;;;;;;;20.19;58.83;100243.13;1712794;82;21654;-80
2022/10/27 11:22:02;;;;;;;9.55;3.22;;;;;;;20.34;57.01;100239.78;1698810;82;21043;-80
2022/10/27 11:24:50;;;;;;;10.28;6.05;;;;;;;20.48;57.00;100235.64;1698038;82;21059;-80
2022/10/27 11:27:40;;;;;;;9.50;3.92;;;;;;;20.69;57.99;100234.63;1703345;84;21051;-80
2022/10/27 11:30:24;;;;;;;9.35;3.95;;;;;;;20.90;57.31;100238.46;1715478;82;21036;-79
2022/10/27 11:33:17;;;;;;;10.20;4.55;;;;;;;21.08;56.29;100230.92;1703957;82;21059;-80
2022/10/27 11:36:18;;;;;;;10.65;4.08;;;;;;;21.30;54.84;100239.09;1675724;85;21130;-78
2022/10/27 11:39:05;;;;;;;11.95;4.60;;;;;;;21.59;54.96;100226.55;1704948;82;21010;-80
2022/10/27 11:41:41;;;;;;;11.75;4.10;;;;;;;21.71;54.04;100225.05;1704941;82;21527;-80
2022/10/27 11:44:23;;;;;;;12.10;4.25;;;;;;;21.88;51.29;100224.61;1704114;82;21187;-81
2022/10/27 11:47:17;;;;;;;12.63;4.83;;;;;;;22.02;53.25;100222.94;1712842;82;20996;-80